KCLE/CLE METAR and TAF weather

Enter ICAO airport designator
Station Type Date Time Source
KCLE METAR 2019/12/14 10:51 UTC NOAA

KCLE 141051Z 36007KT 3SM -RA BR OVC004 04/03 A2962 RMK AO2 SLP034 P0007 T00390028


Station Type Date Time Source
KCLE Decoded METAR 2019/12/14 10:51 UTC NOAA

CLEVELAND-HOPKINS INTERNATIONAL , OH, United States (KCLE) 41-24N 081-51W 236M
Dec 14, 2019 - 05:51 AM EST / 2019.12.14 1051 UTC
Wind: from the N (360 degrees) at 8 MPH (7 KT):0
Visibility: 3 mile(s):0
Sky conditions: overcast
Weather: light rain; mist
Precipitation last hour: 0.07 inches
Temperature: 39.0 F (3.9 C)
Dew Point: 37.0 F (2.8 C)
Relative Humidity: 92%
Pressure (altimeter): 29.62 in. Hg (1003 hPa)
ob: KCLE 141051Z 36007KT 3SM -RA BR OVC004 04/03 A2962 RMK AO2 SLP034 P0007 T00390028
cycle: 11

Station Type Date Time Source
KCLE TAF 2019/12/14 12:27 UTC NOAA

TAF KCLE 141123Z 1412/1518 34006KT 3SM -RA OVC003
FM141600 34009KT 2SM -RASN BR OVC003
FM141800 31010G20KT 1SM -SN BR OVC003
FM142000 30010G20KT 4SM -SN BR OVC008
FM150000 28010G20KT P6SM OVC020
FM150400 28015G25KT P6SM OVC010
FM151600 27010G20KT P6SM OVC020

Example: see airport list